Aptos, California
Current Conditions -  °F | °C
As of 11:53 AM on Thursday 30 Oct 2014 (Local Time) from KWVI Reporting Station
Clear Clear  
Wind Chill: 72°   Ceiling: Unl
Heat Index: 72°   Visibility: 10mi
Dew Point: 57°   Wind: 9mph
Humidity: 59%   Direction: 180°S
Pressure: 29.97"   Gusts: NA
Location:  36.98°N, 121.89°W
Report Text: KWVI 301853Z AUTO 18008KT 10SM CLR 22/14 A2997 RMK AO2 SLP146 T02220139
Loading
Personal Weather Stations






























Interactive Weather Map
Tropical Storm Tracking
New forecast layout! Learn more

10-Day Weather Forecast

Advertisements
Track Severe Weather on mobile